Time;durP1;ratioP1;P1;durP2;ratioP2;P2;SDS_P1;SDS_P2;PMS_P1;PMS_P2;Temp;Humidity;BMP_temperature;BMP_pressure;BME280_temperature;BME280_humidity;BME280_pressure;Samples;Min_cycle;Max_cycle;Signal;HPM_P1;HPM_P2
2024/02/29 00:01:27;;;;;;;11.13;5.10;;;12.00;99.90;;;;;;7387705;19;20023;-77
2024/02/29 00:03:55;;;;;;;10.73;4.97;;;12.00;99.90;;;;;;7400100;19;20018;-77
2024/02/29 00:06:24;;;;;;;11.75;5.18;;;12.00;99.90;;;;;;7400349;19;20006;-77
2024/02/29 00:08:53;;;;;;;14.48;5.35;;;11.90;99.90;;;;;;7390854;19;20003;-78
2024/02/29 00:11:24;;;;;;;13.27;4.90;;;11.80;99.90;;;;;;7410522;19;20067;-78
2024/02/29 00:13:53;;;;;;;19.50;5.22;;;11.80;99.90;;;;;;7386402;19;20014;-78
2024/02/29 00:16:22;;;;;;;9.77;4.80;;;11.80;99.90;;;;;;7390088;19;20006;-78
2024/02/29 00:18:52;;;;;;;12.18;5.07;;;11.90;99.90;;;;;;7386751;19;20007;-78
2024/02/29 00:21:21;;;;;;;14.82;5.03;;;11.90;99.90;;;;;;7385559;19;20011;-78
2024/02/29 00:23:52;;;;;;;17.77;4.60;;;11.90;99.90;;;;;;7384609;19;20006;-78
2024/02/29 00:26:21;;;;;;;15.48;4.47;;;11.90;99.90;;;;;;7407094;19;20007;-79
2024/02/29 00:28:52;;;;;;;10.98;4.90;;;11.90;99.90;;;;;;7389117;19;20236;-78
2024/02/29 00:31:20;;;;;;;10.27;4.88;;;11.90;99.90;;;;;;7388114;19;20691;-77
2024/02/29 00:33:52;;;;;;;23.40;4.70;;;11.90;99.90;;;;;;7387186;19;20007;-78
2024/02/29 00:36:20;;;;;;;10.48;4.80;;;11.90;99.90;;;;;;7385432;19;20010;-77
2024/02/29 00:38:49;;;;;;;10.00;4.63;;;11.90;99.90;;;;;;7385918;19;20062;-78
2024/02/29 00:41:18;;;;;;;9.65;4.40;;;11.90;99.90;;;;;;7409627;19;20381;-78
2024/02/29 00:43:46;;;;;;;12.45;4.80;;;12.00;99.90;;;;;;7384168;19;20058;-78
2024/02/29 00:46:20;;;;;;;12.60;5.60;;;11.90;99.90;;;;;;7384562;19;20007;-78
2024/02/29 00:48:48;;;;;;;9.07;4.88;;;11.90;99.90;;;;;;7384483;19;20368;-78
2024/02/29 00:51:17;;;;;;;11.27;4.22;;;11.90;99.90;;;;;;7385618;19;20024;-79
2024/02/29 00:53:46;;;;;;;20.85;5.22;;;11.90;99.90;;;;;;7382246;19;20018;-78
2024/02/29 00:56:15;;;;;;;11.23;5.10;;;11.90;99.90;;;;;;7406314;19;20048;-77
2024/02/29 00:58:46;;;;;;;6.57;4.07;;;12.00;99.90;;;;;;7384092;19;20071;-78
2024/02/29 01:01:12;;;;;;;13.77;5.00;;;12.00;99.90;;;;;;7383292;19;20358;-77
2024/02/29 01:03:43;;;;;;;8.27;5.05;;;12.00;99.90;;;;;;7384338;19;20003;-77
2024/02/29 01:06:12;;;;;;;12.00;5.00;;;12.10;99.90;;;;;;7383105;19;20039;-78
2024/02/29 01:08:40;;;;;;;8.25;4.68;;;12.10;99.90;;;;;;7384301;19;20010;-78
2024/02/29 01:11:09;;;;;;;13.65;4.75;;;12.10;99.90;;;;;;7409093;19;20262;-77
2024/02/29 01:13:38;;;;;;;7.70;4.63;;;12.10;99.90;;;;;;7386803;19;20023;-78
2024/02/29 01:16:07;;;;;;;7.60;3.75;;;12.10;99.90;;;;;;7382079;19;20003;-77
2024/02/29 01:18:36;;;;;;;9.57;4.93;;;12.10;99.90;;;;;;7381609;19;20109;-79
2024/02/29 01:21:07;;;;;;;16.30;4.63;;;12.10;99.90;;;;;;7384338;19;20015;-78
2024/02/29 01:23:36;;;;;;;13.75;4.88;;;12.10;99.90;;;;;;7385413;19;20078;-78
2024/02/29 01:26:05;;;;;;;8.80;4.25;;;12.10;99.90;;;;;;7408846;19;20030;-79
2024/02/29 01:28:34;;;;;;;10.15;4.60;;;12.10;99.90;;;;;;7385887;19;20249;-79
2024/02/29 01:31:03;;;;;;;10.95;4.93;;;12.10;99.90;;;;;;7387320;19;20724;-78
2024/02/29 01:33:32;;;;;;;9.93;4.93;;;12.00;99.90;;;;;;7381773;19;20025;-78
2024/02/29 01:36:01;;;;;;;11.55;4.95;;;12.10;99.90;;;;;;7385150;19;20015;-78
2024/02/29 01:38:32;;;;;;;13.35;4.63;;;12.10;99.90;;;;;;7404294;19;20063;-77
2024/02/29 01:41:01;;;;;;;14.77;5.10;;;12.10;99.90;;;;;;7383169;19;20013;-78
2024/02/29 01:43:32;;;;;;;8.90;4.78;;;12.00;99.90;;;;;;7383044;19;20024;-78
2024/02/29 01:46:16;;;;;;;17.90;5.35;;;12.10;99.90;;;;;;7382689;19;20318;-79
2024/02/29 01:48:44;;;;;;;18.17;6.25;;;12.10;99.90;;;;;;7380789;19;20015;-77
2024/02/29 01:51:14;;;;;;;18.10;5.68;;;12.10;99.90;;;;;;7381944;19;20017;-77
2024/02/29 01:53:45;;;;;;;16.70;6.68;;;12.10;99.90;;;;;;7381174;19;20007;-79
2024/02/29 01:56:15;;;;;;;15.50;6.07;;;12.10;99.90;;;;;;7403790;19;20071;-78
2024/02/29 01:58:44;;;;;;;8.80;5.78;;;12.00;99.90;;;;;;7383586;19;20229;-80
2024/02/29 02:01:13;;;;;;;11.13;5.68;;;12.00;99.90;;;;;;7382456;19;20067;-78
2024/02/29 02:03:42;;;;;;;13.38;5.53;;;12.10;99.90;;;;;;7387434;19;20006;-78
2024/02/29 02:06:11;;;;;;;17.00;5.93;;;12.10;99.90;;;;;;7387998;19;20015;-78
2024/02/29 02:08:40;;;;;;;12.35;5.97;;;11.80;99.90;;;;;;7383583;19;20023;-79
2024/02/29 02:11:11;;;;;;;11.27;5.57;;;12.00;99.90;;;;;;7403859;19;20018;-77
2024/02/29 02:13:40;;;;;;;7.88;5.50;;;11.80;99.90;;;;;;7382451;19;20070;-78
2024/02/29 02:16:13;;;;;;;15.50;6.07;;;11.90;99.90;;;;;;7384525;19;20015;-79
2024/02/29 02:18:41;;;;;;;14.32;5.35;;;11.90;99.90;;;;;;7382386;19;20006;-78
2024/02/29 02:21:12;;;;;;;10.38;6.18;;;12.00;99.90;;;;;;7384532;19;20027;-78
2024/02/29 02:23:41;;;;;;;17.95;5.80;;;12.00;99.90;;;;;;7383739;19;20014;-77
2024/02/29 02:26:12;;;;;;;11.45;5.90;;;12.10;99.90;;;;;;7401024;19;20023;-77
2024/02/29 02:28:41;;;;;;;11.80;5.38;;;12.10;99.90;;;;;;7385247;19;20003;-78
2024/02/29 02:31:10;;;;;;;11.90;6.03;;;12.10;99.90;;;;;;7388113;19;20243;-78
2024/02/29 02:33:38;;;;;;;15.63;5.85;;;12.00;99.90;;;;;;7386484;19;20011;-78
2024/02/29 02:36:07;;;;;;;15.00;6.05;;;12.10;99.90;;;;;;7390804;19;20445;-78
2024/02/29 02:38:39;;;;;;;13.70;7.25;;;12.10;99.90;;;;;;7387219;19;20078;-79
2024/02/29 02:41:07;;;;;;;12.55;6.07;;;12.10;99.90;;;;;;7418758;19;20020;-77
2024/02/29 02:43:36;;;;;;;14.65;6.13;;;12.10;99.90;;;;;;7406958;19;19999;-77
2024/02/29 02:46:05;;;;;;;12.93;5.93;;;12.10;99.90;;;;;;7398825;19;20010;-77
2024/02/29 02:48:34;;;;;;;14.02;6.07;;;12.10;99.90;;;;;;7403450;19;20006;-77
2024/02/29 02:51:02;;;;;;;10.50;5.78;;;12.10;99.90;;;;;;7403509;19;20011;-77
2024/02/29 02:53:31;;;;;;;15.82;6.72;;;12.10;99.90;;;;;;7409497;19;20019;-76
2024/02/29 02:56:03;;;;;;;9.63;6.43;;;12.10;99.90;;;;;;7428278;19;20010;-78
2024/02/29 02:58:32;;;;;;;11.05;6.95;;;12.10;99.90;;;;;;7404555;19;20028;-78
2024/02/29 03:01:01;;;;;;;11.80;7.30;;;12.10;99.90;;;;;;7405690;19;20010;-78
2024/02/29 03:03:30;;;;;;;16.80;7.07;;;11.90;99.90;;;;;;7390212;19;20007;-79
2024/02/29 03:05:59;;;;;;;12.50;7.10;;;12.00;99.90;;;;;;7389591;19;19998;-78
2024/02/29 03:08:28;;;;;;;15.32;7.90;;;11.90;99.90;;;;;;7414112;19;20031;-78
2024/02/29 03:10:57;;;;;;;14.15;7.18;;;11.90;99.90;;;;;;7391007;19;20018;-78
2024/02/29 03:13:28;;;;;;;15.68;7.97;;;12.00;99.90;;;;;;7390738;19;20023;-79
2024/02/29 03:15:59;;;;;;;17.52;8.50;;;11.90;99.90;;;;;;7389419;19;20023;-78
2024/02/29 03:18:28;;;;;;;18.23;8.07;;;12.00;99.90;;;;;;7388931;19;19999;-78
2024/02/29 03:21:02;;;;;;;24.85;9.60;;;12.00;99.90;;;;;;7387251;19;20540;-79
2024/02/29 03:23:30;;;;;;;16.63;8.80;;;12.10;99.90;;;;;;7401214;19;20017;-77
2024/02/29 03:25:59;;;;;;;16.70;9.13;;;12.00;99.90;;;;;;7409281;19;20007;-78
2024/02/29 03:28:31;;;;;;;22.65;9.77;;;12.10;99.90;;;;;;7386417;19;20011;-77
2024/02/29 03:31:00;;;;;;;15.38;8.80;;;12.10;99.90;;;;;;7384453;19;20041;-77
2024/02/29 03:33:29;;;;;;;18.60;9.13;;;12.10;99.90;;;;;;7387049;19;20031;-79
2024/02/29 03:35:57;;;;;;;13.95;8.40;;;12.10;99.90;;;;;;7385266;19;20357;-77
2024/02/29 03:38:26;;;;;;;15.55;9.32;;;12.10;99.90;;;;;;7404723;19;20159;-78
2024/02/29 03:40:55;;;;;;;16.45;9.20;;;12.10;99.90;;;;;;7384786;19;20007;-78
2024/02/29 03:43:24;;;;;;;25.08;10.07;;;12.20;99.90;;;;;;7386149;19;20019;-78
2024/02/29 03:45:55;;;;;;;15.93;9.57;;;12.20;99.90;;;;;;7383256;19;20019;-77
2024/02/29 03:48:24;;;;;;;18.90;8.95;;;12.20;99.90;;;;;;7388934;19;20024;-78
2024/02/29 03:50:54;;;;;;;22.05;10.50;;;12.20;99.90;;;;;;7388568;19;20264;-79
2024/02/29 03:53:22;;;;;;;17.08;9.73;;;12.30;99.90;;;;;;7413017;19;20071;-78
2024/02/29 03:55:51;;;;;;;23.98;10.32;;;12.20;99.90;;;;;;7384974;19;20020;-79
2024/02/29 03:58:20;;;;;;;18.63;10.45;;;12.00;99.90;;;;;;7385213;19;20018;-77
2024/02/29 04:00:49;;;;;;;18.42;9.95;;;12.10;99.90;;;;;;7385021;19;20010;-78
2024/02/29 04:03:23;;;;;;;16.15;10.15;;;12.10;99.90;;;;;;7389112;19;20014;-80
2024/02/29 04:05:52;;;;;;;20.35;10.48;;;12.10;99.90;;;;;;7387176;19;20049;-77
2024/02/29 04:08:21;;;;;;;18.90;10.30;;;12.10;99.90;;;;;;7409227;19;20070;-78
2024/02/29 04:10:50;;;;;;;19.88;10.10;;;12.10;99.90;;;;;;7385632;19;20015;-77
2024/02/29 04:13:20;;;;;;;21.75;10.10;;;12.20;99.90;;;;;;7384503;19;20006;-79
2024/02/29 04:15:49;;;;;;;16.90;10.38;;;12.20;99.90;;;;;;7384806;19;20031;-78
2024/02/29 04:18:20;;;;;;;15.60;10.25;;;12.30;99.90;;;;;;7384737;19;20314;-78
2024/02/29 04:20:50;;;;;;;16.73;9.43;;;12.20;99.90;;;;;;7386887;19;20031;-78
2024/02/29 04:23:19;;;;;;;15.90;9.35;;;12.20;99.90;;;;;;7411637;19;20010;-79
2024/02/29 04:25:47;;;;;;;16.35;9.40;;;12.20;99.90;;;;;;7384981;19;20041;-78
2024/02/29 04:28:17;;;;;;;16.60;9.50;;;12.30;99.90;;;;;;7385515;19;20097;-78
2024/02/29 04:30:46;;;;;;;13.93;8.35;;;12.30;99.90;;;;;;7387338;19;20517;-78
2024/02/29 04:33:14;;;;;;;16.83;9.10;;;12.20;99.90;;;;;;7386495;19;20018;-77
2024/02/29 04:35:45;;;;;;;18.35;9.70;;;12.30;99.90;;;;;;7385902;19;20015;-78
2024/02/29 04:38:14;;;;;;;13.95;8.30;;;12.20;99.90;;;;;;7405593;19;20043;-78
2024/02/29 04:40:44;;;;;;;15.00;8.60;;;12.20;99.90;;;;;;7385469;19;20029;-79
2024/02/29 04:43:13;;;;;;;13.02;7.93;;;12.20;99.90;;;;;;7388479;19;20003;-78
2024/02/29 04:45:42;;;;;;;14.20;8.43;;;12.20;99.90;;;;;;7386467;19;20003;-79
2024/02/29 04:48:10;;;;;;;14.50;8.43;;;12.00;99.90;;;;;;7385418;19;20034;-78
2024/02/29 04:50:39;;;;;;;12.27;7.57;;;12.10;99.90;;;;;;7383923;19;20007;-78
2024/02/29 04:53:10;;;;;;;11.35;6.97;;;12.10;99.90;;;;;;7403022;19;20024;-78
2024/02/29 04:55:39;;;;;;;14.20;7.82;;;12.10;99.90;;;;;;7383849;19;20429;-78
2024/02/29 04:58:08;;;;;;;10.90;6.97;;;12.20;99.90;;;;;;7384995;19;20006;-77
2024/02/29 05:00:37;;;;;;;13.63;7.40;;;12.20;99.90;;;;;;7385058;19;20010;-78
2024/02/29 05:03:08;;;;;;;15.68;7.70;;;12.20;99.90;;;;;;7383539;19;20010;-78
2024/02/29 05:05:37;;;;;;;11.70;6.72;;;12.20;99.90;;;;;;7383003;19;20087;-78
2024/02/29 05:08:24;;;;;;;9.30;6.47;;;12.30;99.90;;;;;;7408653;19;20007;-79
2024/02/29 05:10:52;;;;;;;12.30;6.88;;;12.30;99.90;;;;;;7383270;19;20003;-77
2024/02/29 05:13:44;;;;;;;13.45;7.65;;;12.30;99.90;;;;;;7381097;19;20016;-79
2024/02/29 05:16:18;;;;;;;;;;;12.30;99.90;;;;;;7384514;19;20003;-78
2024/02/29 05:18:47;;;;;;;9.90;6.07;;;12.40;99.90;;;;;;7382197;19;19919;-79
2024/02/29 05:21:16;;;;;;;10.93;6.22;;;12.40;99.90;;;;;;7386343;19;20059;-80
2024/02/29 05:23:47;;;;;;;10.30;6.30;;;12.40;99.90;;;;;;7385317;19;20371;-78
2024/02/29 05:26:16;;;;;;;10.88;6.25;;;12.40;99.90;;;;;;7406686;19;20074;-79
2024/02/29 05:28:47;;;;;;;10.32;6.20;;;12.30;99.90;;;;;;7386516;19;20075;-79
2024/02/29 05:31:16;;;;;;;7.90;6.10;;;12.30;99.90;;;;;;7384814;19;20002;-79
2024/02/29 05:33:44;;;;;;;10.23;6.47;;;12.40;99.90;;;;;;7384106;19;20070;-79
2024/02/29 05:36:18;;;;;;;10.38;6.38;;;12.40;99.90;;;;;;7388845;19;20007;-80
2024/02/29 05:38:50;;;;;;;11.77;5.80;;;12.20;99.90;;;;;;7390647;19;20007;-78
2024/02/29 05:41:19;;;;;;;8.30;5.97;;;12.30;99.90;;;;;;7413519;19;20022;-78
2024/02/29 05:43:48;;;;;;;8.65;5.50;;;12.30;99.90;;;;;;7392351;19;20019;-79
2024/02/29 05:46:17;;;;;;;8.93;5.63;;;12.30;99.90;;;;;;7389963;19;20021;-78
2024/02/29 05:48:46;;;;;;;9.75;5.57;;;12.40;99.90;;;;;;7393083;19;20027;-78
2024/02/29 05:51:15;;;;;;;18.85;13.07;;;12.30;99.90;;;;;;7398403;19;20011;-77
2024/02/29 05:53:51;;;;;;;16.45;10.75;;;12.40;99.90;;;;;;7396236;19;20017;-78
2024/02/29 05:56:19;;;;;;;10.90;7.60;;;12.40;99.90;;;;;;7407466;19;20013;-78
2024/02/29 05:58:48;;;;;;;10.35;7.00;;;12.40;99.90;;;;;;7381832;19;20014;-78
2024/02/29 06:01:17;;;;;;;9.70;6.40;;;12.40;99.90;;;;;;7381925;19;20046;-77
2024/02/29 06:03:46;;;;;;;14.32;7.65;;;12.50;99.90;;;;;;7380304;19;20055;-78
2024/02/29 06:06:17;;;;;;;11.02;6.95;;;12.40;99.90;;;;;;7383168;19;20070;-79
2024/02/29 06:08:48;;;;;;;12.45;6.78;;;12.50;99.90;;;;;;7382022;19;20074;-78
2024/02/29 06:11:17;;;;;;;;;;;12.40;99.90;;;;;;7403952;19;20070;-78
2024/02/29 06:13:45;;;;;;;14.60;7.05;;;12.40;99.90;;;;;;7383619;19;19915;-79
2024/02/29 06:16:15;;;;;;;11.02;7.22;;;12.40;99.90;;;;;;7381279;19;20010;-78
2024/02/29 06:18:46;;;;;;;8.43;6.38;;;12.40;99.90;;;;;;7380452;19;20014;-79
2024/02/29 06:21:17;;;;;;;11.23;6.78;;;12.40;99.90;;;;;;7382690;19;20007;-78
2024/02/29 06:23:45;;;;;;;10.07;7.00;;;12.40;99.90;;;;;;7383256;19;20011;-79
2024/02/29 06:26:16;;;;;;;13.10;7.38;;;12.40;99.90;;;;;;7405424;19;20007;-78
2024/02/29 06:28:46;;;;;;;12.77;7.13;;;12.40;99.90;;;;;;7385713;19;20086;-78
2024/02/29 06:31:15;;;;;;;15.27;6.88;;;12.40;99.90;;;;;;7384052;19;20427;-78
2024/02/29 06:33:44;;;;;;;11.15;6.68;;;12.40;99.90;;;;;;7383558;19;20014;-78
2024/02/29 06:36:13;;;;;;;9.45;6.75;;;12.30;99.90;;;;;;7382747;19;20388;-78
2024/02/29 06:38:41;;;;;;;12.98;8.18;;;12.40;99.90;;;;;;7381076;19;20013;-77
2024/02/29 06:41:12;;;;;;;11.25;7.70;;;12.40;99.90;;;;;;7406475;19;20011;-79
2024/02/29 06:43:44;;;;;;;18.23;8.68;;;12.40;99.90;;;;;;7384916;19;20030;-78
2024/02/29 06:46:12;;;;;;;12.40;7.85;;;12.40;99.90;;;;;;7383000;19;20086;-79
2024/02/29 06:48:42;;;;;;;13.20;7.28;;;12.40;99.90;;;;;;7382812;19;20070;-79
2024/02/29 06:51:11;;;;;;;14.32;7.13;;;12.40;99.90;;;;;;7378429;19;20550;-79
2024/02/29 06:53:40;;;;;;;12.70;7.35;;;12.30;99.90;;;;;;7381539;19;20010;-78
2024/02/29 06:56:08;;;;;;;14.18;8.35;;;12.30;99.90;;;;;;7402919;19;20074;-78
2024/02/29 06:58:37;;;;;;;14.63;8.75;;;12.30;99.90;;;;;;7379054;19;20294;-78
2024/02/29 07:01:08;;;;;;;15.05;8.52;;;12.30;99.90;;;;;;7380718;19;20017;-78
2024/02/29 07:03:37;;;;;;;13.35;8.00;;;12.30;99.90;;;;;;7380621;19;20105;-79
2024/02/29 07:06:06;;;;;;;12.05;7.10;;;12.30;99.90;;;;;;7377857;19;20006;-79
2024/02/29 07:08:36;;;;;;;13.75;7.93;;;12.30;99.90;;;;;;7381308;19;20239;-78
2024/02/29 07:11:06;;;;;;;10.38;7.38;;;12.30;99.90;;;;;;7401018;19;20011;-80
2024/02/29 07:13:35;;;;;;;12.70;7.88;;;12.30;99.90;;;;;;7380162;19;20011;-79
2024/02/29 07:16:05;;;;;;;16.05;9.00;;;12.30;99.90;;;;;;7384012;19;20096;-79
2024/02/29 07:18:36;;;;;;;11.57;7.05;;;12.30;99.90;;;;;;7386637;19;20242;-79
2024/02/29 07:21:05;;;;;;;9.77;6.90;;;12.40;99.90;;;;;;7388123;19;20263;-78
2024/02/29 07:23:36;;;;;;;10.63;7.15;;;12.30;99.90;;;;;;7389908;19;20006;-79
2024/02/29 07:26:06;;;;;;;9.82;6.40;;;12.30;99.90;;;;;;7412974;19;20120;-78
2024/02/29 07:28:35;;;;;;;12.45;6.82;;;12.40;99.90;;;;;;7388893;19;20010;-78
2024/02/29 07:31:05;;;;;;;12.35;7.07;;;12.40;99.90;;;;;;7388418;19;20275;-78
2024/02/29 07:33:37;;;;;;;11.98;7.57;;;12.40;99.90;;;;;;7388673;19;20006;-78
2024/02/29 07:36:06;;;;;;;13.15;8.27;;;12.40;99.90;;;;;;7391179;19;20007;-79
2024/02/29 07:38:35;;;;;;;16.55;9.00;;;12.40;99.90;;;;;;7391274;19;20007;-77
2024/02/29 07:41:04;;;;;;;19.00;9.93;;;12.30;99.90;;;;;;7416059;19;20051;-79
2024/02/29 07:43:32;;;;;;;14.98;9.48;;;12.40;99.90;;;;;;7388310;19;20015;-79
2024/02/29 07:46:02;;;;;;;11.02;7.55;;;12.40;99.90;;;;;;7386124;19;20018;-79
2024/02/29 07:48:31;;;;;;;9.40;6.57;;;12.40;99.90;;;;;;7385274;19;20389;-80
2024/02/29 07:51:03;;;;;;;11.65;6.90;;;12.40;99.90;;;;;;7384552;19;20015;-80
2024/02/29 07:53:31;;;;;;;13.15;6.22;;;12.40;99.90;;;;;;7406415;19;20164;-78
2024/02/29 07:56:00;;;;;;;10.57;6.25;;;12.40;99.90;;;;;;7384379;19;20022;-78
2024/02/29 07:58:29;;;;;;;8.75;5.28;;;12.40;99.90;;;;;;7386774;19;20009;-78
2024/02/29 08:00:58;;;;;;;8.68;5.93;;;12.50;99.90;;;;;;7387424;19;20305;-79
2024/02/29 08:03:26;;;;;;;9.65;6.35;;;12.40;99.90;;;;;;7386466;19;20002;-78
2024/02/29 08:05:55;;;;;;;10.40;6.05;;;12.40;99.90;;;;;;7384925;19;20010;-78
2024/02/29 08:08:26;;;;;;;9.30;6.38;;;12.40;99.90;;;;;;7407551;19;20010;-77
2024/02/29 08:10:55;;;;;;;8.60;5.57;;;12.30;99.90;;;;;;7382877;19;20067;-77
2024/02/29 08:13:24;;;;;;;9.40;6.60;;;12.40;99.90;;;;;;7382625;19;20547;-78
2024/02/29 08:15:52;;;;;;;9.00;5.90;;;12.40;99.90;;;;;;7382752;19;20003;-79
2024/02/29 08:18:21;;;;;;;11.45;6.03;;;12.40;99.90;;;;;;7386995;19;20015;-77
2024/02/29 08:20:50;;;;;;;12.93;5.40;;;12.40;99.90;;;;;;7384196;19;20011;-78
2024/02/29 08:23:19;;;;;;;9.45;5.90;;;12.40;99.90;;;;;;7406312;19;20365;-76
2024/02/29 08:25:51;;;;;;;7.65;5.75;;;12.40;99.90;;;;;;7382359;19;20484;-76
2024/02/29 08:28:20;;;;;;;9.48;5.68;;;12.40;99.90;;;;;;7382375;19;20102;-77
2024/02/29 08:30:49;;;;;;;11.38;5.88;;;12.40;99.90;;;;;;7383897;19;20019;-79
2024/02/29 08:33:18;;;;;;;8.50;6.07;;;12.50;99.90;;;;;;7392340;19;20006;-79
2024/02/29 08:35:46;;;;;;;10.80;6.13;;;12.50;99.90;;;;;;7388265;19;20086;-79
2024/02/29 08:38:16;;;;;;;9.77;6.05;;;12.50;99.90;;;;;;7407775;19;20015;-76
2024/02/29 08:40:44;;;;;;;11.35;6.22;;;12.50;99.90;;;;;;7383815;19;20006;-77
2024/02/29 08:43:16;;;;;;;10.32;5.45;;;12.50;99.90;;;;;;7384558;19;20010;-77
2024/02/29 08:45:47;;;;;;;14.40;5.22;;;12.50;99.90;;;;;;7389664;19;20045;-78
2024/02/29 08:48:16;;;;;;;9.30;5.32;;;12.50;99.90;;;;;;7391437;19;20023;-77
2024/02/29 08:50:46;;;;;;;7.20;4.78;;;12.50;99.90;;;;;;7392731;19;20011;-79
2024/02/29 08:53:15;;;;;;;8.40;5.13;;;12.50;99.90;;;;;;7406814;19;20018;-77
2024/02/29 08:55:44;;;;;;;8.70;5.43;;;12.50;99.90;;;;;;7382917;19;20331;-79
2024/02/29 08:58:16;;;;;;;10.05;4.90;;;12.50;99.90;;;;;;7383738;19;20007;-79
2024/02/29 09:00:45;;;;;;;6.80;5.10;;;12.60;99.90;;;;;;7381819;19;20104;-77
2024/02/29 09:03:14;;;;;;;8.80;5.63;;;12.60;99.90;;;;;;7383947;19;20720;-77
2024/02/29 09:05:43;;;;;;;9.38;5.22;;;12.50;99.90;;;;;;7383476;19;20023;-78
2024/02/29 09:08:14;;;;;;;9.65;5.10;;;12.50;99.90;;;;;;7401549;19;20007;-78
2024/02/29 09:10:42;;;;;;;8.00;5.13;;;12.60;99.90;;;;;;7382790;19;20067;-76
2024/02/29 09:13:11;;;;;;;11.00;6.03;;;12.60;99.90;;;;;;7381765;19;20244;-75
2024/02/29 09:15:44;;;;;;;9.05;5.43;;;12.60;99.90;;;;;;7385908;19;20015;-76
2024/02/29 09:18:12;;;;;;;10.18;5.30;;;12.60;99.90;;;;;;7384759;19;20082;-76
2024/02/29 09:20:41;;;;;;;7.03;4.28;;;12.70;99.90;;;;;;7381255;19;20011;-75
2024/02/29 09:23:09;;;;;;;7.35;4.75;;;12.70;99.90;;;;;;7403751;19;20113;-75
2024/02/29 09:25:38;;;;;;;6.63;4.25;;;12.70;99.90;;;;;;7380960;19;20086;-76
2024/02/29 09:28:07;;;;;;;7.35;5.13;;;12.80;99.90;;;;;;7382342;19;20112;-74
2024/02/29 09:30:38;;;;;;;7.32;4.13;;;12.80;99.90;;;;;;7385861;19;20007;-79
2024/02/29 09:33:10;;;;;;;6.07;3.92;;;12.70;99.90;;;;;;7384273;19;20019;-77
2024/02/29 09:35:38;;;;;;;;;;;12.70;99.90;;;;;;7385064;19;20397;-78
2024/02/29 09:38:07;;;;;;;6.32;4.03;;;12.70;99.90;;;;;;7401884;19;19919;-77
2024/02/29 09:40:37;;;;;;;7.68;4.35;;;12.70;99.90;;;;;;7375716;19;20070;-76
2024/02/29 09:43:07;;;;;;;7.80;4.30;;;12.70;99.90;;;;;;7380249;19;20010;-76
2024/02/29 09:45:40;;;;;;;7.57;4.32;;;12.80;99.90;;;;;;7378219;19;20018;-76
2024/02/29 09:48:13;;;;;;;6.65;4.25;;;12.80;99.90;;;;;;7377969;19;20070;-75
2024/02/29 09:50:41;;;;;;;6.55;4.63;;;12.80;99.90;;;;;;7379589;19;20003;-77
2024/02/29 09:53:12;;;;;;;8.63;4.07;;;12.80;99.90;;;;;;7402917;19;20289;-75
2024/02/29 09:55:41;;;;;;;5.63;4.28;;;12.80;99.90;;;;;;7380515;19;20024;-76
2024/02/29 09:58:16;;;;;;;8.27;4.53;;;12.80;99.90;;;;;;7380391;19;20086;-77
2024/02/29 10:00:45;;;;;;;6.20;3.55;;;12.90;99.90;;;;;;7378358;19;20083;-76
2024/02/29 10:03:19;;;;;;;5.32;3.83;;;12.80;99.90;;;;;;7378641;19;20408;-77
2024/02/29 10:05:48;;;;;;;5.18;3.88;;;12.80;99.90;;;;;;7374797;19;20159;-76
2024/02/29 10:08:17;;;;;;;4.32;3.05;;;12.80;99.90;;;;;;7400372;19;20086;-74
2024/02/29 10:10:48;;;;;;;4.95;3.80;;;12.80;99.90;;;;;;7381953;19;20017;-77
2024/02/29 10:13:17;;;;;;;;;;;12.90;99.90;;;;;;7381012;19;20020;-78
2024/02/29 10:15:45;;;;;;;5.10;3.60;;;12.90;99.90;;;;;;7377522;19;19934;-77
2024/02/29 10:18:18;;;;;;;5.60;4.07;;;12.90;99.90;;;;;;7377942;19;20280;-77
2024/02/29 10:20:47;;;;;;;5.55;3.90;;;12.90;99.90;;;;;;7379706;19;20013;-77
2024/02/29 10:23:18;;;;;;;8.05;5.22;;;13.00;99.90;;;;;;7402929;19;20059;-77
2024/02/29 10:25:47;;;;;;;7.72;5.07;;;13.00;99.90;;;;;;7383111;19;20031;-76
2024/02/29 10:28:17;;;;;;;7.47;4.25;;;13.00;99.90;;;;;;7379995;19;20011;-76
2024/02/29 10:30:54;;;;;;;5.68;4.30;;;13.10;99.90;;;;;;7380731;19;20007;-76
2024/02/29 10:33:27;;;;;;;11.27;4.95;;;13.10;99.90;;;;;;7379916;19;20007;-76
2024/02/29 10:35:57;;;;;;;6.38;4.57;;;13.00;99.90;;;;;;7381560;19;20030;-75
2024/02/29 10:38:26;;;;;;;6.80;4.60;;;13.10;99.90;;;;;;7400992;19;20369;-77
2024/02/29 10:40:59;;;;;;;5.93;4.03;;;13.10;99.90;;;;;;7378065;19;20007;-76
2024/02/29 10:43:30;;;;;;;6.60;4.95;;;13.10;99.90;;;;;;7377703;19;20086;-77
2024/02/29 10:46:02;;;;;;;8.63;4.63;;;13.10;99.90;;;;;;7378960;19;20389;-76
2024/02/29 10:48:37;;;;;;;;;;;13.10;99.90;;;;;;7379496;19;20010;-76
2024/02/29 10:51:15;;;;;;;8.13;5.40;;;13.20;99.90;;;;;;7384945;19;19919;-77
2024/02/29 10:53:53;;;;;;;10.15;5.45;;;13.10;99.90;;;;;;7388823;19;20021;-74
2024/02/29 10:56:25;;;;;;;6.78;5.30;;;13.20;99.90;;;;;;7405517;19;20031;-76
2024/02/29 10:59:03;;;;;;;8.45;5.75;;;13.00;99.90;;;;;;7385408;19;20003;-76
2024/02/29 11:01:33;;;;;;;11.00;4.95;;;13.10;99.90;;;;;;7384764;19;20003;-76
2024/02/29 11:04:05;;;;;;;10.05;6.13;;;13.10;99.90;;;;;;7386694;19;20006;-81
2024/02/29 11:06:42;;;;;;;8.23;5.85;;;13.10;99.90;;;;;;7394373;19;20050;-79
2024/02/29 11:09:13;;;;;;;7.82;5.65;;;13.10;99.90;;;;;;7389854;19;20007;-79
2024/02/29 11:11:45;;;;;;;7.75;5.97;;;13.20;99.90;;;;;;7389495;19;20027;-79
2024/02/29 11:14:15;;;;;;;8.13;5.45;;;13.30;99.90;;;;;;7414468;19;20083;-78
2024/02/29 11:16:45;;;;;;;9.32;5.95;;;13.30;99.90;;;;;;7388737;19;20011;-80
2024/02/29 11:19:21;;;;;;;9.85;6.72;;;13.30;99.90;;;;;;7388059;19;20087;-80
2024/02/29 11:21:50;;;;;;;8.63;6.00;;;13.30;99.90;;;;;;7394081;19;20010;-82
2024/02/29 11:24:22;;;;;;;7.78;5.47;;;13.30;99.90;;;;;;7419212;19;20243;-79
2024/02/29 11:26:56;;;;;;;;;;;13.30;99.90;;;;;;7389623;19;20002;-79
2024/02/29 11:29:25;;;;;;;7.88;5.28;;;13.40;99.90;;;;;;7389326;19;19911;-80
2024/02/29 11:31:57;;;;;;;8.77;6.22;;;13.30;99.90;;;;;;7386780;19;20014;-81
2024/02/29 11:34:31;;;;;;;10.13;6.03;;;13.40;99.90;;;;;;7388063;19;20376;-81
2024/02/29 11:37:08;;;;;;;9.45;6.35;;;13.40;99.90;;;;;;7391416;19;20061;-79
2024/02/29 11:39:38;;;;;;;8.90;5.93;;;13.40;99.90;;;;;;7395008;19;20003;-78
2024/02/29 11:42:25;;;;;;;8.63;5.60;;;13.40;99.90;;;;;;7420219;19;20021;-79
2024/02/29 11:44:54;;;;;;;6.75;5.88;;;13.30;99.90;;;;;;7401482;19;20212;-75
2024/02/29 11:47:22;;;;;;;11.73;5.75;;;13.30;99.90;;;;;;7394403;19;20019;-74
2024/02/29 11:49:54;;;;;;;7.03;5.30;;;13.40;99.90;;;;;;7392144;19;20023;-76
2024/02/29 11:52:23;;;;;;;7.82;5.25;;;13.40;99.90;;;;;;7397256;19;20006;-75
2024/02/29 11:54:52;;;;;;;7.97;5.43;;;13.20;99.90;;;;;;7386446;19;20264;-75
2024/02/29 11:57:26;;;;;;;11.88;5.68;;;13.20;99.90;;;;;;7410125;19;20293;-78
2024/02/29 11:59:57;;;;;;;7.25;5.18;;;13.30;99.90;;;;;;7387006;19;20020;-77
2024/02/29 12:02:26;;;;;;;9.77;5.97;;;13.30;99.90;;;;;;7387377;19;20018;-76
2024/02/29 12:04:59;;;;;;;7.38;5.03;;;13.30;99.90;;;;;;7387880;19;20385;-76
2024/02/29 12:07:28;;;;;;;7.07;5.38;;;13.30;99.90;;;;;;7385650;19;20015;-75
2024/02/29 12:09:56;;;;;;;11.63;5.47;;;13.30;99.90;;;;;;7385215;19;20078;-76
2024/02/29 12:12:30;;;;;;;130.27;9.95;;;13.30;99.90;;;;;;7406965;19;20014;-78
2024/02/29 12:15:05;;;;;;;10.20;5.60;;;13.40;99.90;;;;;;7386512;19;20071;-77
2024/02/29 12:17:33;;;;;;;8.15;5.22;;;13.40;99.90;;;;;;7389228;19;20006;-77
2024/02/29 12:20:06;;;;;;;7.82;5.32;;;13.40;99.90;;;;;;7389604;19;20388;-77
2024/02/29 12:22:35;;;;;;;7.53;4.88;;;13.40;99.90;;;;;;7387955;19;20010;-80
2024/02/29 12:25:14;;;;;;;6.35;4.70;;;13.40;99.90;;;;;;7387470;19;20015;-78
2024/02/29 12:27:43;;;;;;;7.50;4.70;;;13.40;99.90;;;;;;7385899;19;20074;-79
2024/02/29 12:30:19;;;;;;;5.82;4.10;;;13.30;99.90;;;;;;7408483;19;20022;-76
2024/02/29 12:32:52;;;;;;;4.47;3.83;;;13.40;99.90;;;;;;7392017;19;20014;-77
2024/02/29 12:38:46;;;;;;;5.82;4.20;;;13.40;99.90;;;;;;7385753;19;20017;-80
2024/02/29 12:41:15;;;;;;;6.78;4.60;;;13.50;99.90;;;;;;7383573;19;20015;-76
2024/02/29 12:43:49;;;;;;;5.72;3.95;;;13.50;99.90;;;;;;7385312;19;20007;-77
2024/02/29 12:46:21;;;;;;;7.43;4.68;;;13.50;99.90;;;;;;7384401;19;19999;-79
2024/02/29 12:48:50;;;;;;;6.80;4.60;;;13.40;99.90;;;;;;7380714;19;20014;-77
2024/02/29 12:51:23;;;;;;;7.97;4.40;;;13.40;99.90;;;;;;7406290;19;20018;-79
2024/02/29 12:53:53;;;;;;;5.75;3.95;;;13.30;99.90;;;;;;7387254;19;20006;-79
2024/02/29 13:06:04;;;;;;;6.70;4.35;;;13.50;99.90;;;;;;7382820;19;20014;-81
2024/02/29 13:15:06;;;;;;;6.05;4.35;;;13.40;99.90;;;;;;7388770;19;20018;-82
2024/02/29 13:17:38;;;;;;;8.10;4.88;;;13.50;99.90;;;;;;7382663;19;20010;-79